ADDS METAR Data INFO
IDs: Format: Raw Decoded Include TAF

Data at: 1154 UTC 25 Jun 2018

KPIL 251053Z AUTO 15010KT 8SM FEW018 FEW023 FEW055 27/24 A2989 RMK AO2 SLP120 T02720244
KPIL 250953Z AUTO 15012KT 7SM FEW016 FEW029 27/24 A2988 RMK AO2 SLP118 T02720244
KPIL 250853Z AUTO 15009KT 7SM CLR 27/24 A2988 RMK AO2 LTG DSNT NE SLP119 T02720244 50002
KPIL 250753Z AUTO 15011KT 9SM CLR 27/24 A2989 RMK AO2 SLP121 T02720239
KPIL 250653Z AUTO 16007KT 9SM CLR 27/23 A2989 RMK AO2 SLP122 T02670228
KPIL 250553Z AUTO 15010KT 10SM SCT022 27/23 A2988 RMK AO2 SLP117 T02670233 10300 20267 403280267 50011
KPIL 250453Z AUTO 15009KT 10SM CLR 27/23 A2989 RMK AO2 SLP120 T02720228
KPIL 250353Z AUTO 14012KT 10SM FEW018 27/23 A2987 RMK AO2 SLP115 T02720228
KPIL 250253Z AUTO 15011KT 10SM FEW018 27/23 A2985 RMK AO2 SLP106 T02720228 53010
KPIL 250234Z AUTO 13010KT 10SM SCT020 28/23 A2984 RMK AO2 T02780233
KPIL 250153Z AUTO 13012KT 10SM BKN021 28/23 A2983 RMK AO2 SLP100 T02780228
KPIL 250053Z AUTO 13013KT 9SM FEW021 28/22 A2982 RMK AO2 SLP097 T02830222
KPIL 242353Z AUTO 12014KT 9SM FEW021 30/23 A2982 RMK AO2 SLP096 T03000233 10328 20300 58007
KPIL 242253Z AUTO 13017KT 8SM SCT020 31/24 A2983 RMK AO2 SLP099 T03060239
KPIL 242153Z AUTO 13015KT 8SM CLR 31/24 A2983 RMK AO2 SLP101 T03060239
KPIL 242053Z AUTO 14018G22KT 9SM FEW024 31/24 A2984 RMK AO2 SLP103 T03110239 55005
KPIL 241953Z AUTO 15016G23KT 10SM FEW027 32/23 A2984 RMK AO2 PK WND 15027/1912 SLP103 T03220233
KPIL 241853Z AUTO 14019G25KT 9SM SCT025 31/24 A2984 RMK AO2 PK WND 13027/1826 SLP105 T03110239
KPIL 241753Z AUTO 13020G25KT 9SM SCT027 SCT041 32/24 A2985 RMK AO2 PK WND 15026/1709 SLP109 T03170244 10328 20267 53008
KPIL 241653Z AUTO 14017G26KT 9SM FEW023 32/24 A2984 RMK AO2 PK WND 13027/1620 SLP104 T03170244
KPIL 241553Z AUTO 13019G25KT 9SM FEW020 SCT026 BKN047 31/24 A2984 RMK AO2 SLP105 T03060239
KPIL 241520Z AUTO 14015KT 9SM SCT022 BKN035 BKN047 30/24 A2984 RMK AO2 T03000244
KPIL 241508Z AUTO 15015G20KT 8SM BKN022 31/24 A2984 RMK AO2 T03060244
KPIL 241453Z AUTO 15015KT 9SM SCT023 31/24 A2983 RMK AO2 SLP101 T03060239 53001
KPIL 241443Z AUTO 15011G20KT 9SM FEW023 FEW030 29/24 A2983 RMK AO2 T02940239
KPIL 241403Z AUTO 15012KT 8SM BKN020 BKN026 29/24 A2982 RMK AO2 T02940239
KPIL 241353Z AUTO 15014KT 8SM SCT018 29/24 A2982 RMK AO2 SLP098 T02940244
KPIL 241253Z AUTO 15011KT 6SM HZ CLR 28/24 A2983 RMK AO2 SLP102 T02780244
KPIL 241153Z AUTO 16007KT 4SM BR CLR 27/24 A2983 RMK AO2 SLP100 T02670244 10278 20267 58004
KPIL 241053Z AUTO 16008KT 6SM HZ CLR 27/24 A2983 RMK AO2 SLP101 T02720244
KPIL 240953Z AUTO 16008KT 7SM CLR 27/24 A2984 RMK AO2 SLP105 T02720244
KPIL 240853Z AUTO 16011KT 8SM CLR 27/24 A2984 RMK AO2 SLP104 T02720244 58001
KPIL 240753Z AUTO 16010KT 8SM CLR 27/24 A2984 RMK AO2 SLP105 T02720244
KPIL 240653Z AUTO 16011G20KT 8SM CLR 28/24 A2985 RMK AO2 SLP107 T02780244
KPIL 240624Z AUTO 16016KT 8SM SCT019 28/24 A2984 RMK AO2 T02780244
KPIL 240614Z AUTO 16015G23KT 8SM BKN019 28/24 A2984 RMK AO2 T02780244
KPIL 240553Z AUTO 16016KT 7SM SCT018 28/24 A2984 RMK AO2 SLP105 T02780244 10306 20278 403390267 50013
KPIL 240453Z AUTO 15016G23KT 6SM HZ SCT014 28/25 A2985 RMK AO2 SLP107 T02830250
KPIL 240353Z AUTO 15016KT 5SM HZ SCT012 28/25 A2983 RMK AO2 SLP102 T02830250
KPIL 240253Z AUTO 15014KT 5SM HZ BKN013 OVC019 28/26 A2981 RMK AO2 SLP092 T02830256 53018
KPIL 240153Z AUTO 14015G21KT 5SM HZ BKN014 29/25 A2977 RMK AO2 SLP081 T02890250
KPIL 240130Z AUTO 15015KT 5SM HZ BKN016 29/25 A2976 RMK AO2 T02890250
KPIL 240123Z AUTO 15016KT 5SM HZ SCT016 29/25 A2976 RMK AO2 T02890250
KPIL 240110Z AUTO 14016G20KT 5SM HZ BKN017 29/25 A2977 RMK AO2 T02890250
KPIL 240053Z AUTO 15017G21KT 6SM HZ SCT017 29/25 A2976 RMK AO2 SLP078 T02940250
KPIL 240037Z AUTO 14019G24KT 6SM HZ BKN018 30/25 A2976 RMK AO2 T03000250